Time;durP1;ratioP1;P1;durP2;ratioP2;P2;SDS_P1;SDS_P2;PMS_P1;PMS_P2;Temp;Humidity;BMP_temperature;BMP_pressure;BME280_temperature;BME280_humidity;BME280_pressure;Samples;Min_cycle;Max_cycle;Signal;HPM_P1;HPM_P2
2022/01/01 00:02:48;;;;;;;31.70;28.50;;;;;;;8.65;87.24;97830.58;104486;1331;22455;-64
2022/01/01 00:05:16;;;;;;;31.60;28.50;;;;;;;8.62;87.58;97829.48;104510;1319;22951;-64
2022/01/01 00:07:44;;;;;;;32.10;28.90;;;;;;;8.60;87.96;97829.89;104499;1331;23043;-64
2022/01/01 00:10:12;;;;;;;31.90;28.80;;;;;;;8.58;88.39;97826.16;104498;1331;22578;-64
2022/01/01 00:12:42;;;;;;;29.20;26.30;;;;;;;8.56;88.75;97828.16;104504;1319;22513;-63
2022/01/01 00:15:10;;;;;;;32.90;29.50;;;;;;;8.54;88.77;97832.98;104524;1330;22593;-64
2022/01/01 00:17:39;;;;;;;34.10;30.70;;;;;;;8.53;88.81;97831.96;104523;1330;22504;-64
2022/01/01 00:20:09;;;;;;;34.40;31.30;;;;;;;8.52;88.39;97829.49;104499;1330;22454;-63
2022/01/01 00:22:42;;;;;;;32.40;29.30;;;;;;;8.52;88.88;97830.20;104466;1327;22521;-64
2022/01/01 00:25:13;;;;;;;33.20;30.00;;;;;;;8.51;89.14;97831.77;104499;1330;22327;-64
2022/01/01 00:27:41;;;;;;;32.90;29.50;;;;;;;8.52;89.36;97831.65;104492;1330;22495;-64
2022/01/01 00:30:10;;;;;;;33.60;30.30;;;;;;;8.54;89.50;97832.39;104427;1318;138070;-64
2022/01/01 00:32:42;;;;;;;41.70;37.50;;;;;;;8.53;90.42;97836.25;104498;1316;22517;-65
2022/01/01 00:35:10;;;;;;;41.00;36.10;;;;;;;8.52;90.03;97842.56;104495;1330;22596;-64
2022/01/01 00:37:38;;;;;;;36.10;32.70;;;;;;;8.49;90.09;97845.60;104519;1331;22660;-65
2022/01/01 00:40:08;;;;;;;34.80;31.30;;;;;;;8.48;89.72;97840.73;104509;1329;22434;-64
2022/01/01 00:42:36;;;;;;;34.50;31.10;;;;;;;8.47;89.98;97838.59;104533;1329;22418;-64
2022/01/01 00:45:05;;;;;;;36.00;32.60;;;;;;;8.48;89.67;97842.45;104521;1331;23045;-63
2022/01/01 00:47:33;;;;;;;35.90;32.60;;;;;;;8.48;90.50;97839.66;104529;1319;22434;-64
2022/01/01 00:50:01;;;;;;;36.70;33.00;;;;;;;8.47;90.37;97843.75;104503;1321;22523;-63
2022/01/01 00:52:29;;;;;;;36.00;32.50;;;;;;;8.47;90.78;97847.09;104506;1330;22591;-64
2022/01/01 00:54:57;;;;;;;32.00;28.90;;;;;;;8.47;90.96;97847.73;104491;1330;23314;-63
2022/01/01 00:57:25;;;;;;;35.20;31.80;;;;;;;8.47;91.35;97849.23;104502;1331;22569;-63
2022/01/01 00:59:53;;;;;;;33.30;29.80;;;;;;;8.48;92.09;97845.19;104482;1331;22662;-63
2022/01/01 01:02:22;;;;;;;32.50;29.20;;;;;;;8.50;92.13;97845.39;104511;1316;23130;-64
2022/01/01 01:04:50;;;;;;;30.00;26.70;;;;;;;8.53;92.05;97846.69;104365;1329;137978;-63
2022/01/01 01:07:18;;;;;;;30.50;27.70;;;;;;;8.56;92.37;97847.88;104460;1330;22470;-64
2022/01/01 01:09:46;;;;;;;29.50;26.70;;;;;;;8.58;92.52;97857.85;104485;1330;23195;-64
2022/01/01 01:12:20;;;;;;;28.50;25.60;;;;;;;8.62;91.95;97851.30;104504;1330;22536;-64
2022/01/01 01:14:48;;;;;;;27.30;24.60;;;;;;;8.66;92.34;97855.98;104487;1330;23235;-64
2022/01/01 01:17:17;;;;;;;24.70;22.30;;;;;;;8.69;91.93;97854.38;104475;1331;22546;-62
2022/01/01 01:19:46;;;;;;;25.20;22.70;;;;;;;8.72;91.50;97859.46;104442;1331;22615;-62
2022/01/01 01:22:14;;;;;;;23.40;21.20;;;;;;;8.74;92.81;97859.45;104496;1330;22549;-62
2022/01/01 01:24:43;;;;;;;22.80;19.10;;;;;;;8.77;92.97;97866.38;104500;1326;22544;-61
2022/01/01 01:27:11;;;;;;;20.80;18.80;;;;;;;8.82;92.55;97868.75;104479;1330;22496;-63
2022/01/01 01:29:42;;;;;;;19.90;18.00;;;;;;;8.85;92.59;97869.45;104494;1320;22524;-63
2022/01/01 01:32:11;;;;;;;18.70;17.00;;;;;;;8.89;92.30;97869.41;104473;1331;23236;-63
2022/01/01 01:34:39;;;;;;;19.00;17.20;;;;;;;8.94;92.18;97880.05;104504;1330;23340;-63
2022/01/01 01:37:07;;;;;;;17.80;16.10;;;;;;;8.97;92.74;97883.29;104472;1330;22517;-63
2022/01/01 01:39:35;;;;;;;19.60;17.50;;;;;;;8.98;92.46;97891.06;104534;1319;22644;-60
2022/01/01 01:42:04;;;;;;;17.30;15.30;;;;;;;9.04;93.31;97892.88;104417;1330;138099;-60
2022/01/01 01:44:36;;;;;;;18.60;16.70;;;;;;;9.13;92.95;97892.11;104521;1330;23089;-59
2022/01/01 01:47:13;;;;;;;17.90;16.10;;;;;;;9.23;93.09;97892.23;104511;1330;22526;-60
2022/01/01 01:49:44;;;;;;;16.70;15.00;;;;;;;9.34;92.59;97901.66;104468;1330;22586;-62
2022/01/01 01:52:15;;;;;;;16.20;14.60;;;;;;;9.33;92.11;97901.52;104492;1330;22453;-61
2022/01/01 01:54:44;;;;;;;15.40;13.80;;;;;;;9.30;92.27;97903.77;104546;1330;22993;-61
2022/01/01 01:57:13;;;;;;;15.30;13.70;;;;;;;9.24;92.74;97909.65;104495;1330;22542;-61
2022/01/01 01:59:42;;;;;;;15.00;13.50;;;;;;;9.20;92.38;97909.16;104508;1319;22632;-60
2022/01/01 02:02:11;;;;;;;14.30;12.90;;;;;;;9.19;92.94;97912.84;104506;1330;22316;-60
2022/01/01 02:04:40;;;;;;;15.20;13.80;;;;;;;9.18;93.01;97925.42;104477;1330;22347;-62
2022/01/01 02:07:08;;;;;;;14.90;13.50;;;;;;;9.15;93.72;97921.60;104524;1319;23057;-61
2022/01/01 02:09:38;;;;;;;15.60;14.10;;;;;;;9.15;93.59;97929.77;104532;1319;22341;-60
2022/01/01 02:12:08;;;;;;;15.90;14.40;;;;;;;9.13;93.21;97915.82;104487;1331;22532;-61
2022/01/01 02:15:40;;;;;;;16.10;14.60;;;;;;;9.15;93.19;97920.58;106613;1300;545115;-62
2022/01/01 02:18:08;;;;;;;15.50;13.90;;;;;;;9.11;93.69;97920.26;108768;1283;22314;-61
2022/01/01 02:20:36;;;;;;;15.20;13.70;;;;;;;9.10;93.48;97925.80;108652;1284;22607;-61
2022/01/01 02:23:11;;;;;;;15.40;14.00;;;;;;;9.08;93.56;97927.33;108410;1284;137317;-61
2022/01/01 02:25:48;;;;;;;13.60;12.30;;;;;;;9.05;94.03;97940.65;108260;1288;22467;-62
2022/01/01 02:28:25;;;;;;;13.70;12.30;;;;;;;9.06;94.22;97926.29;108252;1286;179872;-62
2022/01/01 02:30:57;;;;;;;15.70;14.10;;;;;;;9.06;94.28;97935.04;108497;1285;22582;-62
2022/01/01 02:33:26;;;;;;;14.80;13.30;;;;;;;9.06;94.56;97939.34;108491;1285;22465;-62
2022/01/01 02:35:55;;;;;;;14.40;12.90;;;;;;;9.06;94.27;97944.84;108494;1285;23279;-62
2022/01/01 02:38:26;;;;;;;14.90;12.40;;;;;;;9.04;94.75;97940.60;108496;1285;22459;-62
2022/01/01 02:40:58;;;;;;;13.00;11.50;;;;;;;9.04;94.57;97946.56;108488;1285;22594;-60
2022/01/01 02:43:32;;;;;;;12.60;11.40;;;;;;;9.03;94.72;97949.69;109240;1279;22546;-61
2022/01/01 02:46:00;;;;;;;11.80;10.60;;;;;;;9.05;94.81;97952.52;109158;1279;22555;-61
2022/01/01 02:48:28;;;;;;;11.20;10.10;;;;;;;9.05;94.92;97956.60;109217;1279;22249;-61
2022/01/01 02:50:56;;;;;;;11.70;10.50;;;;;;;9.05;94.94;97955.14;109239;1279;22492;-61
2022/01/01 02:53:24;;;;;;;10.60;9.50;;;;;;;9.07;95.09;97954.66;109210;1279;22354;-61
2022/01/01 02:55:52;;;;;;;10.20;9.20;;;;;;;9.06;94.45;97959.83;109480;1277;22435;-60
2022/01/01 02:58:20;;;;;;;11.20;10.10;;;;;;;9.05;95.11;97964.94;109475;1277;22547;-59
2022/01/01 03:00:48;;;;;;;10.60;9.50;;;;;;;9.04;94.89;97960.81;109491;1277;22310;-60
2022/01/01 03:03:16;;;;;;;9.70;8.70;;;;;;;9.04;95.50;97964.74;109461;1276;23226;-60
2022/01/01 03:05:45;;;;;;;10.10;9.10;;;;;;;9.02;95.37;97973.57;109476;1275;23292;-60
2022/01/01 03:08:13;;;;;;;9.40;8.50;;;;;;;9.02;95.40;97971.27;109482;1277;22315;-60
2022/01/01 03:10:41;;;;;;;10.00;9.00;;;;;;;9.02;95.90;97970.02;109475;1277;22523;-60
2022/01/01 03:13:09;;;;;;;9.40;8.40;;;;;;;9.03;95.82;97970.66;109460;1277;22549;-60
2022/01/01 03:15:38;;;;;;;9.80;8.70;;;;;;;9.02;95.73;97967.17;109472;1277;22336;-60
2022/01/01 03:18:06;;;;;;;8.80;8.00;;;;;;;9.04;95.71;97962.64;109475;1277;22477;-61
2022/01/01 03:20:34;;;;;;;8.70;7.80;;;;;;;9.04;95.87;97964.41;109492;1277;22550;-60
2022/01/01 03:23:03;;;;;;;9.60;8.70;;;;;;;9.06;96.05;97969.40;109475;1276;22554;-60
2022/01/01 03:25:31;;;;;;;9.20;8.30;;;;;;;9.06;96.18;97967.13;109481;1277;22404;-60
2022/01/01 03:27:59;;;;;;;9.50;8.50;;;;;;;9.08;95.66;97967.05;109355;1277;22546;-60
2022/01/01 03:30:27;;;;;;;9.90;8.90;;;;;;;9.12;95.21;97972.98;109473;1276;22477;-60
2022/01/01 03:32:56;;;;;;;9.70;8.80;;;;;;;9.15;95.61;97975.62;109470;1276;23191;-61
2022/01/01 03:35:23;;;;;;;9.60;8.40;;;;;;;9.15;95.83;97978.27;109451;1275;22576;-60
2022/01/01 03:37:51;;;;;;;10.30;9.20;;;;;;;9.15;95.76;97976.42;109487;1277;23512;-60
2022/01/01 03:40:19;;;;;;;9.70;8.80;;;;;;;9.16;95.64;97985.94;109458;1274;22574;-60
2022/01/01 03:42:47;;;;;;;9.20;8.30;;;;;;;9.15;95.86;97983.58;109440;1277;22551;-60
2022/01/01 03:45:15;;;;;;;7.80;7.10;;;;;;;9.15;95.52;97984.52;109477;1277;23089;-60
2022/01/01 03:47:43;;;;;;;8.30;7.50;;;;;;;9.15;95.98;97989.88;109486;1277;22570;-60
2022/01/01 03:50:11;;;;;;;8.40;7.50;;;;;;;9.17;95.51;97993.19;109487;1275;23411;-60
2022/01/01 03:52:44;;;;;;;7.90;7.10;;;;;;;9.18;95.41;97995.11;109468;1277;22455;-61
2022/01/01 03:55:14;;;;;;;8.90;7.50;;;;;;;9.19;95.83;98001.27;109475;1275;22428;-61
2022/01/01 03:57:42;;;;;;;7.00;6.30;;;;;;;9.18;95.86;98001.36;109484;1274;23167;-61
2022/01/01 04:00:11;;;;;;;7.40;6.70;;;;;;;9.17;95.99;98011.80;109482;1277;22532;-61
2022/01/01 04:02:42;;;;;;;7.20;6.50;;;;;;;9.17;95.78;98007.50;109471;1274;22538;-61
2022/01/01 04:05:11;;;;;;;7.90;7.10;;;;;;;9.17;96.07;98007.27;109471;1277;22401;-61
2022/01/01 04:07:39;;;;;;;8.50;7.30;;;;;;;9.17;96.11;98013.52;109483;1277;22407;-59
2022/01/01 04:10:08;;;;;;;8.50;7.20;;;;;;;9.17;95.99;98012.42;109376;1277;22567;-61
2022/01/01 04:12:36;;;;;;;8.30;7.50;;;;;;;9.16;96.22;98011.70;109479;1277;22493;-61
2022/01/01 04:15:05;;;;;;;8.40;7.50;;;;;;;9.16;95.97;98011.65;109365;1275;22553;-61
2022/01/01 04:17:36;;;;;;;8.20;7.40;;;;;;;9.17;96.07;98016.31;109454;1276;22151;-61
2022/01/01 04:20:06;;;;;;;9.00;8.10;;;;;;;9.17;96.05;98011.20;109467;1277;22500;-61
2022/01/01 04:22:35;;;;;;;8.20;7.30;;;;;;;9.19;96.07;98019.45;109486;1277;22463;-61
2022/01/01 04:25:03;;;;;;;8.60;7.70;;;;;;;9.20;96.30;98020.89;109346;1277;22452;-61
2022/01/01 04:27:31;;;;;;;7.10;6.40;;;;;;;9.21;96.18;98012.67;109462;1277;23431;-61
2022/01/01 04:29:59;;;;;;;8.30;6.70;;;;;;;9.21;95.99;98012.94;109469;1277;23175;-61
2022/01/01 04:32:27;;;;;;;6.90;6.20;;;;;;;9.22;96.39;98009.46;109484;1277;23339;-61
2022/01/01 04:34:55;;;;;;;7.60;6.80;;;;;;;9.24;96.45;98018.02;109474;1277;22521;-61
2022/01/01 04:37:23;;;;;;;9.30;8.40;;;;;;;9.26;96.50;98024.59;109486;1275;23175;-61
2022/01/01 04:39:57;;;;;;;10.50;9.50;;;;;;;9.27;96.32;98025.45;109466;1277;23338;-61
2022/01/01 04:42:26;;;;;;;9.50;8.60;;;;;;;9.26;96.26;98030.23;109461;1277;23162;-61
2022/01/01 04:44:54;;;;;;;9.30;8.20;;;;;;;9.25;96.71;98033.25;109315;1277;22378;-61
2022/01/01 04:47:22;;;;;;;9.40;8.20;;;;;;;9.26;96.91;98032.88;109472;1275;23079;-61
2022/01/01 04:49:50;;;;;;;8.00;7.10;;;;;;;9.26;96.34;98034.80;109493;1277;22462;-61
2022/01/01 04:52:18;;;;;;;8.60;7.60;;;;;;;9.27;96.16;98038.63;109481;1277;22461;-60
2022/01/01 04:54:46;;;;;;;8.70;7.90;;;;;;;9.27;96.40;98043.67;109488;1277;22524;-61
2022/01/01 04:57:14;;;;;;;10.30;8.70;;;;;;;9.27;95.93;98038.89;109456;1277;23478;-61
2022/01/01 04:59:43;;;;;;;11.50;8.40;;;;;;;9.28;96.37;98045.11;109466;1277;22545;-60
2022/01/01 05:02:11;;;;;;;9.80;8.80;;;;;;;9.28;96.14;98039.67;109450;1276;22495;-61
2022/01/01 05:04:40;;;;;;;9.90;7.80;;;;;;;9.30;96.09;98040.48;109480;1277;23114;-61
2022/01/01 05:07:08;;;;;;;8.70;7.50;;;;;;;9.32;95.92;98036.56;109484;1277;22463;-61
2022/01/01 05:09:36;;;;;;;9.40;8.50;;;;;;;9.31;96.28;98040.56;109490;1277;23214;-61
2022/01/01 05:12:06;;;;;;;11.30;8.40;;;;;;;9.31;96.20;98037.00;109480;1277;22503;-60
2022/01/01 05:14:35;;;;;;;10.10;8.90;;;;;;;9.32;96.21;98034.85;109489;1277;22509;-61
2022/01/01 05:17:03;;;;;;;10.00;8.50;;;;;;;9.34;96.36;98042.63;109452;1277;22262;-60
2022/01/01 05:19:31;;;;;;;9.20;8.10;;;;;;;9.35;96.35;98046.44;109624;1274;23137;-60
2022/01/01 05:21:59;;;;;;;7.80;7.00;;;;;;;9.36;96.33;98058.52;109617;1274;22454;-61
2022/01/01 05:24:27;;;;;;;8.90;8.00;;;;;;;9.38;96.42;98056.77;109614;1274;22419;-61
2022/01/01 05:26:59;;;;;;;9.20;7.10;;;;;;;9.39;96.27;98052.25;109629;1274;22583;-61
2022/01/01 05:29:27;;;;;;;8.40;7.60;;;;;;;9.39;96.29;98058.23;109642;1274;22471;-60
2022/01/01 05:31:55;;;;;;;9.90;7.90;;;;;;;9.39;96.44;98056.98;109627;1274;22554;-61
2022/01/01 05:34:23;;;;;;;7.80;7.00;;;;;;;9.38;96.30;98064.40;109620;1274;22551;-61
2022/01/01 05:36:52;;;;;;;6.60;5.90;;;;;;;9.38;96.58;98073.66;109628;1274;22459;-62
2022/01/01 05:39:21;;;;;;;8.10;7.30;;;;;;;9.38;96.88;98073.51;109616;1274;22484;-61
2022/01/01 05:41:54;;;;;;;7.90;6.60;;;;;;;9.38;96.35;98078.99;109615;1274;23329;-61
2022/01/01 05:44:22;;;;;;;7.90;6.60;;;;;;;9.39;96.52;98080.65;109632;1274;22401;-62
2022/01/01 05:46:51;;;;;;;7.80;6.20;;;;;;;9.40;96.37;98084.02;109618;1274;23271;-62
2022/01/01 05:49:19;;;;;;;7.90;7.00;;;;;;;9.40;96.13;98085.70;109609;1274;23207;-62
2022/01/01 05:51:47;;;;;;;8.30;7.50;;;;;;;9.39;96.64;98082.91;109627;1274;22195;-61
2022/01/01 05:54:19;;;;;;;8.00;7.30;;;;;;;9.38;96.63;98097.27;109612;1274;22451;-61
2022/01/01 05:56:48;;;;;;;7.30;6.60;;;;;;;9.37;96.80;98098.75;109603;1274;22529;-61
2022/01/01 05:59:16;;;;;;;7.90;6.80;;;;;;;9.36;96.78;98098.59;109626;1274;22511;-61
2022/01/01 06:01:44;;;;;;;7.80;7.10;;;;;;;9.34;96.53;98096.19;109632;1274;22475;-61
2022/01/01 06:04:12;;;;;;;7.80;7.00;;;;;;;9.32;96.73;98096.80;109606;1274;22359;-61
2022/01/01 06:06:46;;;;;;;8.70;7.90;;;;;;;9.31;96.92;98100.63;109611;1274;23166;-61
2022/01/01 06:09:15;;;;;;;9.40;8.50;;;;;;;9.29;96.80;98097.91;109626;1274;22491;-61
2022/01/01 06:11:43;;;;;;;11.90;10.80;;;;;;;9.29;96.81;98094.20;109612;1274;23168;-62
2022/01/01 06:14:11;;;;;;;10.90;9.80;;;;;;;9.28;96.89;98099.00;109635;1274;22664;-62
2022/01/01 06:16:39;;;;;;;10.90;9.80;;;;;;;9.26;96.75;98108.05;109633;1274;22412;-60
2022/01/01 06:19:08;;;;;;;9.20;8.40;;;;;;;9.26;97.03;98112.13;109616;1274;22574;-61
2022/01/01 06:21:36;;;;;;;10.10;9.20;;;;;;;9.26;96.79;98117.35;109624;1274;22483;-61
2022/01/01 06:24:05;;;;;;;9.00;8.20;;;;;;;9.26;97.02;98114.45;109604;1274;22239;-60
2022/01/01 06:26:38;;;;;;;7.70;7.00;;;;;;;9.24;97.05;98120.13;109626;1274;22496;-61
2022/01/01 06:29:06;;;;;;;8.40;7.70;;;;;;;9.23;96.76;98121.69;109616;1274;22495;-61
2022/01/01 06:31:34;;;;;;;9.20;8.40;;;;;;;9.24;96.81;98120.34;109625;1274;22480;-62
2022/01/01 06:34:03;;;;;;;8.50;7.20;;;;;;;9.25;96.82;98122.41;109603;1274;23128;-60
2022/01/01 06:36:31;;;;;;;7.50;6.80;;;;;;;9.27;96.98;98124.77;109605;1274;22405;-59
2022/01/01 06:38:59;;;;;;;7.90;7.10;;;;;;;9.25;97.07;98122.20;109620;1274;22588;-61
2022/01/01 06:41:27;;;;;;;8.00;7.20;;;;;;;9.26;96.80;98125.10;109613;1274;22437;-60
2022/01/01 06:43:55;;;;;;;7.10;6.40;;;;;;;9.24;96.62;98133.50;109621;1274;22445;-60
2022/01/01 06:46:23;;;;;;;7.70;7.00;;;;;;;9.23;97.00;98145.94;109602;1274;23188;-60
2022/01/01 06:48:51;;;;;;;6.70;6.10;;;;;;;9.23;97.09;98141.96;109618;1274;22643;-60
2022/01/01 06:51:19;;;;;;;8.60;7.80;;;;;;;9.24;97.10;98150.46;109624;1274;23180;-60
2022/01/01 06:53:47;;;;;;;7.20;6.50;;;;;;;9.26;97.25;98145.42;109626;1272;22458;-60
2022/01/01 06:56:15;;;;;;;7.90;7.20;;;;;;;9.27;96.95;98154.08;109614;1274;22509;-61
2022/01/01 06:58:44;;;;;;;7.40;6.70;;;;;;;9.28;96.91;98159.48;109590;1274;22466;-61
2022/01/01 07:01:12;;;;;;;8.20;7.40;;;;;;;9.28;97.31;98159.61;109623;1274;22447;-60
2022/01/01 07:03:41;;;;;;;7.70;7.00;;;;;;;9.26;97.07;98159.77;109633;1274;22516;-60
2022/01/01 07:06:09;;;;;;;8.00;7.30;;;;;;;9.24;97.25;98157.60;109627;1274;23754;-60
2022/01/01 07:08:38;;;;;;;8.10;7.30;;;;;;;9.25;97.11;98158.39;109623;1274;22249;-60
2022/01/01 07:11:06;;;;;;;8.00;7.30;;;;;;;9.27;97.12;98165.96;109609;1274;22416;-60
2022/01/01 07:13:34;;;;;;;8.40;7.60;;;;;;;9.28;96.85;98164.11;109620;1274;22537;-61
2022/01/01 07:16:02;;;;;;;8.70;7.90;;;;;;;9.30;97.27;98170.35;109562;1274;22421;-61
2022/01/01 07:18:31;;;;;;;8.90;8.00;;;;;;;9.29;97.32;98171.48;109610;1274;22469;-61
2022/01/01 07:20:59;;;;;;;8.40;7.60;;;;;;;9.32;97.13;98169.94;109636;1274;22512;-61
2022/01/01 07:23:27;;;;;;;9.00;8.20;;;;;;;9.32;96.76;98168.87;109626;1274;23180;-60
2022/01/01 07:25:55;;;;;;;9.20;8.40;;;;;;;9.33;97.00;98174.02;109641;1274;22439;-61
2022/01/01 07:28:23;;;;;;;9.70;8.80;;;;;;;9.33;96.76;98176.02;109625;1274;22760;-60
2022/01/01 07:30:51;;;;;;;10.50;9.50;;;;;;;9.34;96.66;98176.21;109618;1274;22429;-60
2022/01/01 07:33:19;;;;;;;9.80;8.80;;;;;;;9.34;96.90;98181.16;109614;1274;22359;-61
2022/01/01 07:35:47;;;;;;;9.80;8.90;;;;;;;9.36;97.05;98187.02;109605;1274;22446;-60
2022/01/01 07:38:15;;;;;;;11.20;10.00;;;;;;;9.36;96.90;98185.03;109645;1274;23200;-60
2022/01/01 07:40:43;;;;;;;12.20;11.10;;;;;;;9.35;96.83;98187.13;109605;1274;22568;-60
2022/01/01 07:43:12;;;;;;;11.10;10.10;;;;;;;9.37;96.79;98182.87;109616;1274;22543;-60
2022/01/01 07:45:41;;;;;;;14.10;11.90;;;;;;;9.36;96.80;98187.17;109605;1274;23081;-61
2022/01/01 07:48:10;;;;;;;12.60;11.30;;;;;;;9.35;97.12;98194.86;109607;1274;22418;-61
2022/01/01 07:50:40;;;;;;;13.10;11.90;;;;;;;9.37;96.66;98189.48;109629;1274;22556;-60
2022/01/01 07:53:09;;;;;;;12.90;11.70;;;;;;;9.38;96.61;98194.96;109637;1274;22413;-62
2022/01/01 07:55:38;;;;;;;12.40;11.30;;;;;;;9.38;96.78;98201.08;109621;1274;23239;-62
2022/01/01 07:58:07;;;;;;;12.50;11.40;;;;;;;9.36;96.67;98204.02;109628;1274;22496;-62
2022/01/01 08:00:36;;;;;;;12.50;11.40;;;;;;;9.34;97.01;98208.06;109539;1274;22414;-62
2022/01/01 08:03:04;;;;;;;13.70;12.60;;;;;;;9.35;96.86;98211.27;109633;1274;22423;-61
2022/01/01 08:05:32;;;;;;;12.60;11.50;;;;;;;9.34;97.03;98215.00;109626;1274;22496;-61
2022/01/01 08:08:01;;;;;;;13.70;12.40;;;;;;;9.33;97.04;98218.52;109612;1274;22404;-61
2022/01/01 08:10:31;;;;;;;13.40;12.30;;;;;;;9.34;96.70;98220.86;109610;1274;22533;-61
2022/01/01 08:13:01;;;;;;;12.30;11.20;;;;;;;9.33;96.77;98220.91;109553;1275;23215;-61
2022/01/01 08:15:29;;;;;;;12.20;11.10;;;;;;;9.33;96.83;98224.60;109624;1274;22523;-61
2022/01/01 08:17:57;;;;;;;13.60;12.40;;;;;;;9.34;96.82;98224.95;109615;1274;22447;-61
2022/01/01 08:20:37;;;;;;;12.80;11.30;;;;;;;9.38;96.77;98232.17;109637;1274;22330;-61
2022/01/01 08:23:05;;;;;;;12.70;11.60;;;;;;;9.39;96.58;98227.17;109627;1274;22513;-61
2022/01/01 08:25:33;;;;;;;13.40;12.20;;;;;;;9.38;96.70;98225.23;109636;1274;22450;-61
2022/01/01 08:28:02;;;;;;;13.70;12.50;;;;;;;9.40;96.56;98225.55;109626;1274;22374;-60
2022/01/01 08:30:30;;;;;;;14.70;13.40;;;;;;;9.42;96.83;98229.35;109639;1274;22563;-61
2022/01/01 08:33:01;;;;;;;14.10;12.80;;;;;;;9.41;96.65;98229.83;109635;1274;22296;-61
2022/01/01 08:35:34;;;;;;;13.40;12.20;;;;;;;9.40;96.72;98235.05;109628;1274;22461;-61
2022/01/01 08:38:04;;;;;;;13.80;12.50;;;;;;;9.39;96.67;98244.42;109614;1274;22410;-61
2022/01/01 08:40:33;;;;;;;11.00;10.00;;;;;;;9.37;96.78;98243.69;109625;1274;23312;-62
2022/01/01 08:43:02;;;;;;;13.80;12.50;;;;;;;9.35;96.70;98243.17;109625;1274;22518;-61
2022/01/01 08:45:37;;;;;;;13.00;11.90;;;;;;;9.34;96.81;98248.07;109621;1274;22397;-60
2022/01/01 08:48:08;;;;;;;12.00;10.90;;;;;;;9.33;96.97;98250.83;109646;1274;22616;-60
2022/01/01 08:50:36;;;;;;;12.30;11.10;;;;;;;9.35;96.77;98245.80;109622;1274;23118;-60
2022/01/01 08:53:05;;;;;;;12.20;11.00;;;;;;;9.34;96.88;98252.16;109628;1274;22479;-60
2022/01/01 08:55:33;;;;;;;12.50;11.30;;;;;;;9.34;96.97;98251.68;109640;1274;23142;-61
2022/01/01 08:58:01;;;;;;;12.40;11.30;;;;;;;9.34;96.78;98260.45;109638;1274;22413;-61
2022/01/01 09:00:49;;;;;;;11.50;10.40;;;;;;;9.33;97.10;98260.73;109648;1274;22561;-62
2022/01/01 09:03:17;;;;;;;10.00;8.90;;;;;;;9.33;97.00;98259.33;109653;1274;22451;-61
2022/01/01 09:05:45;;;;;;;11.50;10.40;;;;;;;9.35;97.19;98259.41;109627;1274;22520;-60
2022/01/01 09:08:38;;;;;;;12.60;11.40;;;;;;;9.36;96.99;98262.05;109620;1274;23088;-62
2022/01/01 09:11:07;;;;;;;10.60;9.60;;;;;;;9.38;96.99;98261.91;109626;1274;22506;-61
2022/01/01 09:13:41;;;;;;;10.00;9.10;;;;;;;9.40;97.20;98267.98;109568;1274;23246;-62
2022/01/01 09:16:14;;;;;;;9.00;8.10;;;;;;;9.42;96.76;98276.10;109640;1274;22505;-61
2022/01/01 09:18:45;;;;;;;9.00;8.10;;;;;;;9.42;97.18;98287.55;109619;1274;23167;-60
2022/01/01 09:21:14;;;;;;;9.50;8.50;;;;;;;9.41;97.11;98294.98;109564;1274;22437;-60
2022/01/01 09:23:42;;;;;;;7.80;7.10;;;;;;;9.42;97.27;98283.14;109548;1275;22549;-62
2022/01/01 09:26:10;;;;;;;9.20;8.30;;;;;;;9.45;96.83;98284.62;109646;1274;22477;-61
2022/01/01 09:28:38;;;;;;;9.20;8.40;;;;;;;9.44;96.99;98282.90;109630;1274;22446;-61
2022/01/01 09:31:06;;;;;;;8.50;7.70;;;;;;;9.46;97.07;98284.92;109639;1274;22449;-61
2022/01/01 09:33:35;;;;;;;9.20;8.30;;;;;;;9.46;97.34;98282.88;109648;1274;23101;-62
2022/01/01 09:36:04;;;;;;;9.70;8.70;;;;;;;9.46;96.89;98279.52;109646;1274;23248;-61
2022/01/01 09:38:33;;;;;;;10.10;9.00;;;;;;;9.47;96.95;98279.66;109642;1274;22548;-61
2022/01/01 09:41:03;;;;;;;9.60;8.70;;;;;;;9.47;96.94;98282.02;109631;1274;22477;-61
2022/01/01 09:43:32;;;;;;;11.20;10.10;;;;;;;9.46;96.88;98291.13;109610;1274;22235;-60
2022/01/01 09:46:01;;;;;;;10.70;9.60;;;;;;;9.48;96.99;98295.30;109630;1274;22458;-61
2022/01/01 09:48:30;;;;;;;10.40;9.30;;;;;;;9.50;97.03;98296.19;109638;1274;22443;-61
2022/01/01 09:51:01;;;;;;;11.00;10.00;;;;;;;9.50;96.93;98295.55;109630;1274;23225;-60
2022/01/01 09:53:31;;;;;;;10.80;9.70;;;;;;;9.53;97.09;98295.70;109631;1274;22434;-61
2022/01/01 09:56:02;;;;;;;11.00;9.90;;;;;;;9.55;97.08;98299.11;109634;1274;22454;-63
2022/01/01 09:58:34;;;;;;;11.60;10.30;;;;;;;9.56;96.87;98300.45;109637;1274;22538;-61
2022/01/01 10:01:03;;;;;;;12.50;11.20;;;;;;;9.59;96.92;98301.07;109632;1274;22622;-61
2022/01/01 10:03:41;;;;;;;13.10;10.70;;;;;;;9.58;96.72;98300.48;109631;1274;22513;-62
2022/01/01 10:06:12;;;;;;;11.00;9.90;;;;;;;9.57;96.92;98302.48;109641;1274;22445;-61
2022/01/01 10:08:45;;;;;;;11.90;10.70;;;;;;;9.57;96.80;98296.42;109640;1274;22414;-60
2022/01/01 10:11:18;;;;;;;15.40;13.90;;;;;;;9.59;96.99;98304.20;109631;1274;22461;-60
2022/01/01 10:13:46;;;;;;;15.10;13.60;;;;;;;9.61;97.07;98296.69;109561;1275;22451;-61
2022/01/01 10:16:15;;;;;;;14.60;13.10;;;;;;;9.63;97.10;98305.57;109644;1274;22563;-61
2022/01/01 10:18:48;;;;;;;13.30;12.00;;;;;;;9.63;96.64;98299.96;109647;1274;23196;-61
2022/01/01 10:21:22;;;;;;;12.60;11.40;;;;;;;9.62;96.86;98302.59;109550;1274;22340;-60
2022/01/01 10:23:52;;;;;;;14.50;13.20;;;;;;;9.60;96.86;98303.65;109655;1274;22464;-61
2022/01/01 10:29:18;;;;;;;11.30;10.20;;;;;;;9.54;96.87;98298.54;109649;1274;23199;-62
2022/01/01 10:32:08;;;;;;;10.30;9.30;;;;;;;9.52;97.17;98302.26;109645;1274;23320;-62
2022/01/01 10:34:44;;;;;;;8.80;7.90;;;;;;;9.47;97.48;98307.58;109653;1274;22420;-62
2022/01/01 10:37:33;;;;;;;9.60;8.60;;;;;;;9.45;97.62;98303.34;109650;1274;22246;-64
2022/01/01 10:40:02;;;;;;;9.60;8.60;;;;;;;9.44;97.26;98304.21;109619;1274;22550;-61
2022/01/01 10:42:30;;;;;;;8.10;7.30;;;;;;;9.43;97.16;98300.34;109651;1274;22554;-61
2022/01/01 10:44:58;;;;;;;9.40;8.50;;;;;;;9.43;97.31;98310.14;109658;1274;22262;-60
2022/01/01 10:47:31;;;;;;;8.80;7.90;;;;;;;9.39;97.14;98309.46;109645;1274;22439;-61
2022/01/01 10:52:45;;;;;;;9.80;8.70;;;;;;;9.33;97.44;98304.35;109634;1274;22419;-61
2022/01/01 10:55:15;;;;;;;10.60;9.50;;;;;;;9.32;97.49;98302.69;109651;1274;22674;-60
2022/01/01 10:57:55;;;;;;;11.20;9.90;;;;;;;9.36;97.59;98305.99;109645;1274;22673;-61
2022/01/01 11:00:26;;;;;;;11.20;10.00;;;;;;;9.40;97.50;98306.66;109633;1274;22259;-61
2022/01/01 11:02:58;;;;;;;12.20;11.00;;;;;;;9.42;97.13;98303.68;109656;1274;23170;-61
2022/01/01 11:05:31;;;;;;;13.30;12.00;;;;;;;9.47;97.05;98299.14;109638;1274;22457;-61
2022/01/01 11:08:01;;;;;;;13.70;12.30;;;;;;;9.50;97.14;98307.44;109666;1274;22456;-60
2022/01/01 11:10:30;;;;;;;14.60;13.00;;;;;;;9.52;97.40;98309.41;109632;1274;22512;-61
2022/01/01 11:12:59;;;;;;;15.20;13.70;;;;;;;9.53;97.12;98312.48;109662;1274;23325;-61
2022/01/01 11:15:28;;;;;;;14.90;13.40;;;;;;;9.54;96.79;98313.28;109641;1274;22448;-62
2022/01/01 11:17:58;;;;;;;14.30;12.90;;;;;;;9.55;96.84;98307.61;109645;1274;22457;-61
2022/01/01 11:20:30;;;;;;;14.60;13.20;;;;;;;9.60;96.72;98312.96;109656;1274;22467;-61
2022/01/01 11:23:01;;;;;;;15.50;13.90;;;;;;;9.63;96.76;98314.23;109658;1274;22466;-61
2022/01/01 11:25:29;;;;;;;15.60;14.10;;;;;;;9.66;96.69;98307.48;109662;1274;22458;-60
2022/01/01 11:27:58;;;;;;;14.30;12.90;;;;;;;9.69;96.58;98306.38;109660;1274;22351;-61
2022/01/01 11:30:30;;;;;;;17.50;15.60;;;;;;;9.70;96.25;98307.39;109684;1274;22633;-61
2022/01/01 11:33:07;;;;;;;16.50;14.90;;;;;;;9.70;96.25;98304.80;109633;1272;22422;-61
2022/01/01 11:35:38;;;;;;;20.30;18.20;;;;;;;9.68;96.25;98298.74;109659;1274;22399;-61
2022/01/01 11:38:10;;;;;;;15.90;14.50;;;;;;;9.66;96.31;98313.02;109657;1274;22490;-61
2022/01/01 11:40:56;;;;;;;15.30;13.80;;;;;;;9.63;96.32;98311.05;109658;1274;23199;-61
2022/01/01 11:43:36;;;;;;;15.00;13.50;;;;;;;9.61;96.53;98307.58;109659;1274;22441;-61